EDAC

Altenburg-Nobitz Airport

Altenburg, Germany
METAR EDAC 251520Z 32008KT 9999 FEW048 13/01 Q1037
Observed Flight Rules
Sep-25 @ 15:20 UTC (31 minutes ago) Visual Flight Rules
Wind Visibility Clouds
320° at 8 knots 10,000+ meters
  • Few at 4,800' AGL
Temperatures Readings
Current 13°C / 55°F
Dewpoint 1°C / 34°F
Humidity 44%
Altimeter 30.62" Hg
Pressure 1037 hPa
Elevation 195
METAR EDAC 251520Z 32008KT 9999 FEW048 13/01 Q1037
Observed Flight Rules
Sep-25 @ 15:20 UTC
(31 minutes ago)
VFR
Wind Visibility
320° at 8 knots 10,000+ meters
Clouds
  • Few at 4,800' AGL
Temperature Dewpoint
13°C / 55°F 1°C / 34°F
Humidity Altimeter Pressure
44% 30.62" Hg 1037 hPa